createdAt,value
2023-09-22T00:04:04.509Z,985.8
2023-09-22T00:14:04.454Z,985.9
2023-09-22T00:24:04.430Z,986
2023-09-22T00:34:04.388Z,986
2023-09-22T00:44:04.353Z,986
2023-09-22T00:54:04.316Z,986
2023-09-22T01:04:04.286Z,986.1
2023-09-22T01:14:04.255Z,986.2
2023-09-22T01:24:04.204Z,986.2
2023-09-22T01:34:04.184Z,986.3
2023-09-22T01:44:04.146Z,986.4
2023-09-22T01:54:04.101Z,986.3
2023-09-22T02:04:04.067Z,986.4
2023-09-22T02:24:03.992Z,986.4
2023-09-22T02:34:03.964Z,986.4
2023-09-22T02:44:03.917Z,986.4
2023-09-22T02:54:03.880Z,986.6
2023-09-22T03:04:03.858Z,986.7
2023-09-22T03:14:03.815Z,986.7
2023-09-22T03:24:03.771Z,986.7
2023-09-22T03:34:03.741Z,986.6
2023-09-22T03:44:03.714Z,986.5
2023-09-22T03:54:03.658Z,986.4
2023-09-22T04:04:03.640Z,986.5
2023-09-22T04:14:03.608Z,986.6
2023-09-22T04:24:03.565Z,986.6
2023-09-22T04:34:03.524Z,986.6
2023-09-22T04:44:03.488Z,986.8
2023-09-22T04:54:03.457Z,986.6
2023-09-22T05:04:03.427Z,986.7
2023-09-22T05:14:03.393Z,986.8
2023-09-22T05:24:03.350Z,986.9
2023-09-22T05:34:03.322Z,986.9
2023-09-22T05:44:03.285Z,987
2023-09-22T05:54:03.243Z,987.3
2023-09-22T06:04:03.214Z,987.3
2023-09-22T06:14:03.166Z,987.1
2023-09-22T06:24:03.141Z,987.3
2023-09-22T06:34:03.108Z,987.3
2023-09-22T06:44:03.071Z,987.5
2023-09-22T06:54:03.028Z,987.6
2023-09-22T07:04:02.997Z,987.7
2023-09-22T07:14:02.959Z,987.8
2023-09-22T07:24:02.933Z,988
2023-09-22T07:34:02.909Z,988
2023-09-22T07:44:02.834Z,988
2023-09-22T07:54:02.821Z,988
2023-09-22T08:04:02.784Z,988.1
2023-09-22T08:14:02.985Z,988.2
2023-09-22T08:24:02.933Z,988.2
2023-09-22T08:34:02.680Z,988.2
2023-09-22T08:44:02.637Z,988.2
2023-09-22T08:54:02.584Z,988.1
2023-09-22T09:04:02.545Z,988.1
2023-09-22T09:14:02.519Z,988.1
2023-09-22T09:24:02.481Z,988.2
2023-09-22T09:34:02.484Z,988.2
2023-09-22T09:44:02.416Z,988.2
2023-09-22T09:54:02.584Z,988.2
2023-09-22T10:04:02.340Z,988.3
2023-09-22T10:14:02.289Z,988.4
2023-09-22T10:24:02.259Z,988.4
2023-09-22T10:34:02.227Z,988.5
2023-09-22T10:44:02.441Z,988.6
2023-09-22T10:54:02.508Z,988.6
2023-09-22T11:04:02.159Z,988.6
2023-09-22T11:14:02.217Z,988.6
2023-09-22T11:24:02.296Z,988.7
2023-09-22T11:34:02.126Z,988.8
2023-09-22T11:44:02.292Z,988.8
2023-09-22T11:54:02.226Z,988.9
2023-09-22T12:04:01.863Z,988.9
2023-09-22T12:14:01.853Z,988.9
2023-09-22T12:24:02.150Z,989
2023-09-22T12:34:02.094Z,989
2023-09-22T12:44:01.969Z,989
2023-09-22T12:54:02.030Z,989
2023-09-22T13:04:01.820Z,988.9
2023-09-22T13:14:01.668Z,988.8
2023-09-22T13:24:01.592Z,988.8
2023-09-22T13:34:01.677Z,988.7
2023-09-22T13:44:01.867Z,988.7
2023-09-22T13:54:01.651Z,988.6
2023-09-22T14:04:01.729Z,988.6
2023-09-22T14:14:01.688Z,988.7
2023-09-22T14:24:01.532Z,988.7
2023-09-22T14:34:01.577Z,988.7
2023-09-22T14:44:01.341Z,988.6
2023-09-22T14:54:01.223Z,988.6
2023-09-22T15:04:01.172Z,988.7
2023-09-22T15:14:01.310Z,988.8
2023-09-22T15:24:01.331Z,988.9
2023-09-22T15:34:01.376Z,989
2023-09-22T15:44:01.319Z,989.3
2023-09-22T15:54:01.402Z,989.5
2023-09-22T16:04:01.279Z,989.8
2023-09-22T16:14:01.301Z,989.7
2023-09-22T16:24:00.879Z,989.7
2023-09-22T16:34:01.279Z,989.7
2023-09-22T16:44:01.046Z,989.7
2023-09-22T16:54:00.959Z,989.6
2023-09-22T17:04:00.739Z,989.6
2023-09-22T17:14:00.990Z,989.6
2023-09-22T17:24:00.907Z,989.6
2023-09-22T17:34:00.899Z,989.6
2023-09-22T17:44:00.838Z,989.7
2023-09-22T17:54:00.764Z,989.8
2023-09-22T18:04:00.894Z,989.8
2023-09-22T18:14:00.533Z,989.9
2023-09-22T18:24:00.795Z,989.9
2023-09-22T18:34:00.377Z,990
2023-09-22T18:44:00.417Z,990
2023-09-22T18:54:00.782Z,990.1
2023-09-22T19:04:00.585Z,990.1
2023-09-22T19:14:00.231Z,990.2
2023-09-22T19:24:00.333Z,990.4
2023-09-22T19:34:00.499Z,990.6
2023-09-22T19:44:00.481Z,990.7
2023-09-22T19:54:00.367Z,990.8
2023-09-22T20:04:00.175Z,991
2023-09-22T20:14:00.131Z,991.2
2023-09-22T20:24:00.058Z,991.3
2023-09-22T20:34:00.136Z,991.5
2023-09-22T20:43:59.913Z,991.6
2023-09-22T20:54:00.127Z,991.7
2023-09-22T21:04:00.212Z,991.9
2023-09-22T21:14:00.031Z,992
2023-09-22T21:24:00.053Z,992.1
2023-09-22T21:34:00.080Z,992.4
2023-09-22T21:44:00.032Z,992.5
2023-09-22T21:54:00.037Z,992.7
2023-09-22T22:03:59.615Z,992.8
2023-09-22T22:13:59.830Z,992.9
2023-09-22T22:23:59.832Z,993.1
2023-09-22T22:33:59.856Z,993.1
2023-09-22T22:43:59.764Z,993.2
2023-09-22T22:53:59.745Z,993.4
2023-09-22T23:03:59.747Z,993.6
2023-09-22T23:13:59.514Z,993.8
2023-09-22T23:23:59.473Z,993.9
2023-09-22T23:33:59.608Z,994
2023-09-22T23:43:59.653Z,994.1
2023-09-22T23:53:59.556Z,994.2
